createdAt,value
2019-03-29T00:00:58.263Z,8.30
2019-03-29T00:02:51.398Z,8.40
2019-03-29T00:04:43.873Z,8.30
2019-03-29T00:06:36.397Z,8.30
2019-03-29T00:08:29.548Z,8.20
2019-03-29T00:10:22.080Z,8.20
2019-03-29T00:12:14.515Z,8.30
2019-03-29T00:14:06.889Z,8.20
2019-03-29T00:15:59.990Z,8.10
2019-03-29T00:17:52.540Z,8.20
2019-03-29T00:19:44.777Z,8.20
2019-03-29T00:21:37.264Z,8.00
2019-03-29T00:23:29.448Z,8.00
2019-03-29T00:25:21.737Z,7.90
2019-03-29T00:27:13.980Z,7.80
2019-03-29T00:29:06.528Z,7.70
2019-03-29T00:30:58.691Z,7.80
2019-03-29T00:32:50.780Z,7.80
2019-03-29T00:34:42.839Z,7.80
2019-03-29T00:36:35.133Z,7.80
2019-03-29T00:38:27.358Z,7.80
2019-03-29T00:40:19.631Z,7.70
2019-03-29T00:42:11.766Z,7.60
2019-03-29T00:44:03.675Z,7.60
2019-03-29T00:45:55.896Z,7.70
2019-03-29T00:47:47.920Z,7.60
2019-03-29T00:49:40.301Z,7.60
2019-03-29T00:51:32.888Z,7.60
2019-03-29T00:53:25.059Z,7.60
2019-03-29T00:55:17.140Z,7.60
2019-03-29T00:57:09.504Z,7.60
2019-03-29T00:59:01.763Z,7.50
2019-03-29T01:00:53.760Z,7.40
2019-03-29T01:02:45.955Z,7.40
2019-03-29T01:04:39.683Z,7.40
2019-03-29T01:06:32.003Z,7.40
2019-03-29T01:08:24.149Z,7.40
2019-03-29T01:10:16.244Z,7.40
2019-03-29T01:12:08.250Z,7.30
2019-03-29T01:14:00.376Z,7.30
2019-03-29T01:15:52.591Z,7.20
2019-03-29T01:17:45.763Z,7.20
2019-03-29T01:19:38.402Z,7.10
2019-03-29T01:21:30.559Z,7.20
2019-03-29T01:23:22.570Z,7.20
2019-03-29T01:25:15.939Z,7.20
2019-03-29T01:27:08.212Z,7.20
2019-03-29T01:29:00.451Z,7.20
2019-03-29T01:30:52.675Z,7.10
2019-03-29T01:32:44.875Z,7.20
2019-03-29T01:34:36.730Z,7.10
2019-03-29T01:36:29.424Z,7.10
2019-03-29T01:38:24.146Z,7.00
2019-03-29T01:40:15.911Z,7.00
2019-03-29T01:42:09.366Z,6.90
2019-03-29T01:44:02.015Z,6.90
2019-03-29T01:45:54.899Z,6.90
2019-03-29T01:47:47.129Z,6.90
2019-03-29T01:49:39.540Z,6.90
2019-03-29T01:51:31.828Z,6.80
2019-03-29T01:53:24.153Z,6.70
2019-03-29T01:55:16.280Z,6.70
2019-03-29T01:57:08.262Z,6.70
2019-03-29T01:59:00.146Z,6.70
2019-03-29T02:00:52.011Z,6.70
2019-03-29T02:02:44.104Z,6.70
2019-03-29T02:04:36.468Z,6.60
2019-03-29T02:06:28.647Z,6.60
2019-03-29T02:08:34.850Z,6.60
2019-03-29T02:10:14.807Z,6.60
2019-03-29T02:12:08.475Z,6.60
2019-03-29T02:14:00.630Z,6.60
2019-03-29T02:15:53.103Z,6.60
2019-03-29T02:17:45.175Z,6.50
2019-03-29T02:19:37.396Z,6.50
2019-03-29T02:21:29.586Z,6.50
2019-03-29T02:23:22.152Z,6.50
2019-03-29T02:25:15.278Z,6.50
2019-03-29T02:27:07.729Z,6.50
2019-03-29T02:28:59.658Z,6.50
2019-03-29T02:30:51.762Z,6.50
2019-03-29T02:32:44.280Z,6.50
2019-03-29T02:34:36.537Z,6.40
2019-03-29T02:36:28.763Z,6.40
2019-03-29T02:38:21.222Z,6.40
2019-03-29T02:40:14.014Z,6.40
2019-03-29T02:42:06.476Z,6.40
2019-03-29T02:43:58.723Z,6.30
2019-03-29T02:45:50.622Z,6.30
2019-03-29T02:47:42.516Z,6.20
2019-03-29T02:49:34.607Z,6.20
2019-03-29T02:51:27.060Z,6.10
2019-03-29T02:53:19.037Z,6.20
2019-03-29T02:55:11.461Z,6.20
2019-03-29T02:57:03.710Z,6.20
2019-03-29T02:58:56.179Z,6.10
2019-03-29T03:00:48.375Z,6.10
2019-03-29T03:02:41.044Z,6.00
2019-03-29T03:04:33.034Z,6.10
2019-03-29T03:06:25.120Z,6.00
2019-03-29T03:08:17.239Z,6.00
2019-03-29T03:10:11.251Z,6.00
2019-03-29T03:12:03.892Z,5.90
2019-03-29T03:13:56.105Z,5.90
2019-03-29T03:15:48.403Z,5.90
2019-03-29T03:17:40.414Z,5.90
2019-03-29T03:19:32.272Z,5.90
2019-03-29T03:21:24.746Z,5.90
2019-03-29T03:23:16.958Z,5.90
2019-03-29T03:25:09.336Z,5.90
2019-03-29T03:27:01.474Z,6.00
2019-03-29T03:28:53.502Z,6.00
2019-03-29T03:30:46.169Z,6.00
2019-03-29T03:32:38.506Z,5.80
2019-03-29T03:34:31.056Z,5.80
2019-03-29T03:36:24.180Z,5.80
2019-03-29T03:38:16.117Z,5.80
2019-03-29T03:40:10.389Z,5.70
2019-03-29T03:42:02.555Z,5.80
2019-03-29T03:43:55.027Z,5.80
2019-03-29T03:45:48.468Z,5.70
2019-03-29T03:47:40.952Z,5.70
2019-03-29T03:49:33.541Z,5.70
2019-03-29T03:51:25.941Z,5.60
2019-03-29T03:53:18.473Z,5.70
2019-03-29T03:55:10.659Z,5.70
2019-03-29T03:57:02.860Z,5.60
2019-03-29T03:58:55.469Z,5.60
2019-03-29T04:00:52.021Z,5.60
2019-03-29T04:02:44.115Z,5.60
2019-03-29T04:04:37.956Z,5.50
2019-03-29T04:06:29.933Z,5.60
2019-03-29T04:08:22.189Z,5.60
2019-03-29T04:10:14.641Z,5.50
2019-03-29T04:12:06.992Z,5.50
2019-03-29T04:13:58.885Z,5.50
2019-03-29T04:15:52.435Z,5.50
2019-03-29T04:17:44.628Z,5.40
2019-03-29T04:19:36.536Z,5.50
2019-03-29T04:21:28.693Z,5.50
2019-03-29T04:23:20.553Z,5.40
2019-03-29T04:25:13.024Z,5.40
2019-03-29T04:27:04.948Z,5.40
2019-03-29T04:29:04.941Z,5.50
2019-03-29T04:30:50.743Z,5.50
2019-03-29T04:32:42.555Z,5.40
2019-03-29T04:34:34.617Z,5.30
2019-03-29T04:36:26.824Z,5.30
2019-03-29T04:38:19.062Z,5.30
2019-03-29T04:40:11.471Z,5.30
2019-03-29T04:42:03.404Z,5.30
2019-03-29T04:43:55.265Z,5.30
2019-03-29T04:45:47.981Z,5.30
2019-03-29T04:47:40.389Z,5.30
2019-03-29T04:49:32.951Z,5.20
2019-03-29T04:51:25.088Z,5.20
2019-03-29T04:53:17.332Z,5.10
2019-03-29T04:55:09.576Z,5.10
2019-03-29T04:57:01.892Z,5.10
2019-03-29T04:58:54.020Z,5.20
2019-03-29T05:00:46.236Z,5.20
2019-03-29T05:02:38.267Z,5.20
2019-03-29T05:04:30.156Z,5.10
2019-03-29T05:06:22.675Z,5.20
2019-03-29T05:08:14.830Z,5.10
2019-03-29T05:10:20.584Z,5.10
2019-03-29T05:12:00.873Z,5.10
2019-03-29T05:13:53.475Z,5.10
2019-03-29T05:15:45.733Z,5.10
2019-03-29T05:17:38.219Z,5.10
2019-03-29T05:19:30.604Z,5.10
2019-03-29T05:21:22.655Z,5.10
2019-03-29T05:23:14.736Z,5.10
2019-03-29T05:25:06.906Z,5.10
2019-03-29T05:26:59.348Z,5.20
2019-03-29T05:28:51.568Z,5.20
2019-03-29T05:30:43.481Z,5.20
2019-03-29T05:32:35.582Z,5.20
2019-03-29T05:34:27.921Z,5.20
2019-03-29T05:36:20.170Z,5.20
2019-03-29T05:38:12.365Z,5.20
2019-03-29T05:40:06.096Z,5.10
2019-03-29T05:41:58.377Z,5.10
2019-03-29T05:43:50.549Z,5.00
2019-03-29T05:45:44.073Z,5.00
2019-03-29T05:47:36.613Z,5.00
2019-03-29T05:49:28.458Z,5.00
2019-03-29T05:51:20.617Z,5.00
2019-03-29T05:53:13.112Z,5.10
2019-03-29T05:55:07.171Z,5.10
2019-03-29T05:56:59.277Z,5.10
2019-03-29T05:58:51.406Z,5.20
2019-03-29T06:00:43.537Z,5.20
2019-03-29T06:02:35.654Z,5.20
2019-03-29T06:04:29.441Z,5.40
2019-03-29T06:06:24.328Z,5.40
2019-03-29T06:08:16.802Z,5.30
2019-03-29T06:10:08.956Z,5.40
2019-03-29T06:12:01.719Z,5.30
2019-03-29T06:13:53.900Z,5.30
2019-03-29T06:15:45.811Z,5.40
2019-03-29T06:17:47.907Z,5.30
2019-03-29T06:19:32.586Z,5.30
2019-03-29T06:21:24.524Z,5.20
2019-03-29T06:23:16.695Z,5.30
2019-03-29T06:25:08.903Z,5.30
2019-03-29T06:27:01.007Z,5.40
2019-03-29T06:28:53.458Z,5.50
2019-03-29T06:30:46.520Z,5.50
2019-03-29T06:32:39.040Z,5.60
2019-03-29T06:34:31.174Z,5.40
2019-03-29T06:36:24.021Z,5.60
2019-03-29T06:38:16.161Z,5.60
2019-03-29T06:40:10.018Z,5.80
2019-03-29T06:42:02.815Z,5.80
2019-03-29T06:43:55.083Z,6.00
2019-03-29T06:45:48.500Z,5.80
2019-03-29T06:47:40.965Z,5.80
2019-03-29T06:49:33.625Z,5.90
2019-03-29T06:51:25.851Z,5.80
2019-03-29T06:53:18.097Z,5.80
2019-03-29T06:55:10.519Z,5.80
2019-03-29T06:57:03.365Z,5.80
2019-03-29T06:58:55.603Z,5.90
2019-03-29T07:00:47.456Z,6.00
2019-03-29T07:02:39.756Z,6.20
2019-03-29T07:04:31.958Z,6.20
2019-03-29T07:06:24.453Z,6.30
2019-03-29T07:08:16.783Z,6.30
2019-03-29T07:10:08.958Z,6.20
2019-03-29T07:12:01.443Z,6.30
2019-03-29T07:13:57.788Z,6.40
2019-03-29T07:15:47.772Z,6.50
2019-03-29T07:17:40.107Z,6.70
2019-03-29T07:19:32.194Z,6.80
2019-03-29T07:21:24.576Z,7.00
2019-03-29T07:23:16.650Z,7.00
2019-03-29T07:25:09.284Z,7.30
2019-03-29T07:27:02.726Z,7.50
2019-03-29T07:28:55.365Z,7.50
2019-03-29T07:30:47.799Z,7.50
2019-03-29T07:32:39.895Z,7.50
2019-03-29T07:34:32.299Z,7.50
2019-03-29T07:36:24.679Z,7.60
2019-03-29T07:38:16.721Z,7.60
2019-03-29T07:40:09.393Z,7.60
2019-03-29T07:42:01.792Z,7.60
2019-03-29T07:43:54.412Z,7.60
2019-03-29T07:45:46.569Z,7.60
2019-03-29T07:47:39.083Z,7.70
2019-03-29T07:49:32.831Z,7.90
2019-03-29T07:51:26.499Z,7.90
2019-03-29T07:53:18.691Z,7.90
2019-03-29T07:55:11.224Z,8.00
2019-03-29T07:57:03.626Z,8.10
2019-03-29T07:58:55.992Z,8.30
2019-03-29T08:00:48.264Z,8.30
2019-03-29T08:02:40.337Z,8.40
2019-03-29T08:04:32.346Z,8.50
2019-03-29T08:06:25.347Z,8.60
2019-03-29T08:08:24.676Z,8.70
2019-03-29T08:10:24.148Z,8.70
2019-03-29T08:12:05.542Z,9.10
2019-03-29T08:13:58.091Z,9.20
2019-03-29T08:15:50.367Z,9.50
2019-03-29T08:17:42.852Z,9.50
2019-03-29T08:19:37.247Z,9.40
2019-03-29T08:21:29.452Z,9.50
2019-03-29T08:23:21.969Z,9.40
2019-03-29T08:25:14.482Z,9.30
2019-03-29T08:27:06.789Z,9.20
2019-03-29T08:28:59.166Z,9.10
2019-03-29T08:30:51.436Z,9.20
2019-03-29T08:32:43.649Z,9.60
2019-03-29T08:34:36.174Z,9.80
2019-03-29T08:36:28.888Z,9.90
2019-03-29T08:38:21.485Z,10.00
2019-03-29T08:40:13.967Z,10.10
2019-03-29T08:42:05.992Z,10.40
2019-03-29T08:43:58.524Z,10.50
2019-03-29T08:45:50.376Z,10.80
2019-03-29T08:47:42.689Z,10.70
2019-03-29T08:49:35.248Z,10.90
2019-03-29T08:51:27.791Z,10.70
2019-03-29T08:53:20.040Z,10.80
2019-03-29T08:55:12.089Z,10.80
2019-03-29T08:57:04.612Z,11.10
2019-03-29T08:58:56.803Z,11.20
2019-03-29T09:00:48.979Z,11.30
2019-03-29T09:02:41.505Z,11.50
2019-03-29T09:04:33.987Z,11.50
2019-03-29T09:06:26.360Z,11.30
2019-03-29T09:08:18.688Z,10.90
2019-03-29T09:10:24.170Z,10.80
2019-03-29T09:12:16.645Z,11.30
2019-03-29T09:14:08.869Z,11.50
2019-03-29T09:16:01.512Z,11.50
2019-03-29T09:17:54.914Z,11.80
2019-03-29T09:19:47.233Z,11.80
2019-03-29T09:21:39.575Z,11.60
2019-03-29T09:23:32.020Z,11.70
2019-03-29T09:25:23.824Z,11.80
2019-03-29T09:27:16.236Z,11.40
2019-03-29T09:29:08.480Z,11.60
2019-03-29T09:31:00.532Z,11.80
2019-03-29T09:32:52.418Z,12.10
2019-03-29T09:34:44.605Z,12.40
2019-03-29T09:36:37.003Z,12.10
2019-03-29T09:38:29.541Z,12.10
2019-03-29T09:40:21.799Z,12.20
2019-03-29T09:42:27.720Z,12.10
2019-03-29T09:44:07.369Z,12.10
2019-03-29T09:46:03.017Z,12.20
2019-03-29T09:47:55.957Z,12.10
2019-03-29T09:49:47.500Z,12.40
2019-03-29T09:51:39.679Z,12.60
2019-03-29T09:53:31.756Z,12.20
2019-03-29T09:55:24.392Z,12.00
2019-03-29T09:57:16.765Z,12.10
2019-03-29T09:59:08.988Z,12.20
2019-03-29T10:01:01.235Z,12.60
2019-03-29T10:02:53.515Z,12.80
2019-03-29T10:04:46.048Z,12.70
2019-03-29T10:06:38.573Z,12.30
2019-03-29T10:08:31.228Z,12.30
2019-03-29T10:10:23.428Z,12.40
2019-03-29T10:12:15.636Z,12.50
2019-03-29T10:14:07.642Z,12.60
2019-03-29T10:16:00.024Z,12.60
2019-03-29T10:17:52.249Z,12.90
2019-03-29T10:19:44.410Z,12.80
2019-03-29T10:21:36.738Z,13.30
2019-03-29T10:23:28.936Z,13.10
2019-03-29T10:25:21.781Z,13.40
2019-03-29T10:27:14.445Z,13.50
2019-03-29T10:29:06.827Z,12.80
2019-03-29T10:30:58.984Z,12.90
2019-03-29T10:32:51.149Z,13.10
2019-03-29T10:34:43.430Z,13.10
2019-03-29T10:36:35.927Z,13.20
2019-03-29T10:38:28.108Z,13.50
2019-03-29T10:40:21.758Z,13.50
2019-03-29T10:42:13.947Z,13.90
2019-03-29T10:44:05.995Z,14.10
2019-03-29T10:45:57.958Z,14.20
2019-03-29T10:47:49.839Z,14.00
2019-03-29T10:49:41.985Z,14.10
2019-03-29T10:51:34.092Z,14.30
2019-03-29T10:53:28.752Z,13.90
2019-03-29T10:55:21.412Z,14.00
2019-03-29T10:57:13.827Z,14.00
2019-03-29T10:59:05.797Z,14.10
2019-03-29T11:00:58.192Z,14.00
2019-03-29T11:02:50.270Z,13.40
2019-03-29T11:04:42.576Z,13.50
2019-03-29T11:06:35.884Z,13.70
2019-03-29T11:08:28.056Z,14.20
2019-03-29T11:10:30.406Z,14.10
2019-03-29T11:12:24.157Z,14.40
2019-03-29T11:14:16.476Z,14.50
2019-03-29T11:16:09.233Z,14.60
2019-03-29T11:18:01.413Z,14.40
2019-03-29T11:19:53.399Z,14.00
2019-03-29T11:21:45.715Z,13.90
2019-03-29T11:23:38.185Z,13.70
2019-03-29T11:25:30.313Z,13.80
2019-03-29T11:27:22.712Z,13.80
2019-03-29T11:29:15.396Z,13.50
2019-03-29T11:31:07.598Z,13.70
2019-03-29T11:32:59.712Z,13.80
2019-03-29T11:34:51.814Z,14.00
2019-03-29T11:36:44.138Z,14.40
2019-03-29T11:38:36.617Z,14.30
2019-03-29T11:40:28.951Z,14.50
2019-03-29T11:42:21.195Z,14.50
2019-03-29T11:44:13.433Z,14.10
2019-03-29T11:46:06.894Z,14.00
2019-03-29T11:48:08.549Z,14.10
2019-03-29T11:49:53.043Z,14.00
2019-03-29T11:51:45.333Z,14.00
2019-03-29T11:53:37.733Z,13.90
2019-03-29T11:55:29.751Z,13.60
2019-03-29T11:57:22.382Z,13.70
2019-03-29T11:59:14.534Z,13.90
2019-03-29T12:01:06.706Z,14.00
2019-03-29T12:02:59.276Z,14.10
2019-03-29T12:04:51.560Z,14.50
2019-03-29T12:06:43.759Z,15.10
2019-03-29T12:08:36.078Z,15.10
2019-03-29T12:10:29.580Z,14.60
2019-03-29T12:12:22.138Z,14.20
2019-03-29T12:14:14.635Z,14.30
2019-03-29T12:16:07.310Z,14.40
2019-03-29T12:17:59.431Z,14.70
2019-03-29T12:19:51.563Z,15.60
2019-03-29T12:21:45.296Z,16.40
2019-03-29T12:23:37.285Z,15.90
2019-03-29T12:25:29.613Z,16.50
2019-03-29T12:27:22.009Z,16.50
2019-03-29T12:29:14.125Z,16.50
2019-03-29T12:31:06.776Z,17.10
2019-03-29T12:32:59.216Z,16.80
2019-03-29T12:34:51.276Z,17.70
2019-03-29T12:36:46.048Z,17.20
2019-03-29T12:38:37.518Z,17.10
2019-03-29T12:40:30.350Z,16.60
2019-03-29T12:42:23.868Z,16.40
2019-03-29T12:44:16.004Z,16.40
2019-03-29T12:46:08.123Z,16.90
2019-03-29T12:48:00.016Z,16.70
2019-03-29T12:49:52.348Z,17.20
2019-03-29T12:51:46.551Z,17.50
2019-03-29T12:53:38.509Z,17.70
2019-03-29T12:55:31.166Z,17.40
2019-03-29T12:57:23.629Z,17.40
2019-03-29T12:59:15.704Z,18.10
2019-03-29T13:01:08.058Z,19.20
2019-03-29T13:02:59.997Z,18.80
2019-03-29T13:04:51.879Z,18.40
2019-03-29T13:06:43.707Z,18.40
2019-03-29T13:08:36.091Z,18.60
2019-03-29T13:10:28.938Z,19.00
2019-03-29T13:12:21.126Z,19.00
2019-03-29T13:14:13.577Z,18.70
2019-03-29T13:16:05.829Z,18.40
2019-03-29T13:17:58.367Z,18.10
2019-03-29T13:19:50.913Z,18.20
2019-03-29T13:21:43.222Z,19.00
2019-03-29T13:23:35.400Z,18.50
2019-03-29T13:25:27.986Z,17.90
2019-03-29T13:27:20.224Z,19.00
2019-03-29T13:29:12.897Z,18.70
2019-03-29T13:31:05.046Z,19.80
2019-03-29T13:32:57.202Z,19.90
2019-03-29T13:34:51.394Z,19.80
2019-03-29T13:36:43.660Z,19.10
2019-03-29T13:38:35.828Z,18.30
2019-03-29T13:40:27.803Z,18.00
2019-03-29T13:42:20.335Z,17.40
2019-03-29T13:44:23.187Z,16.60
2019-03-29T13:46:06.553Z,16.80
2019-03-29T13:47:58.795Z,17.20
2019-03-29T13:49:51.070Z,16.70
2019-03-29T13:51:43.173Z,17.00
2019-03-29T13:53:35.665Z,17.50
2019-03-29T13:55:28.395Z,18.10
2019-03-29T13:57:20.477Z,17.80
2019-03-29T13:59:12.729Z,17.40
2019-03-29T14:01:05.268Z,17.40
2019-03-29T14:02:57.215Z,16.90
2019-03-29T14:04:49.372Z,16.90
2019-03-29T14:06:41.794Z,16.80
2019-03-29T14:08:34.187Z,17.10
2019-03-29T14:10:26.476Z,17.40
2019-03-29T14:12:18.557Z,18.40
2019-03-29T14:14:13.759Z,17.60
2019-03-29T14:16:06.473Z,18.50
2019-03-29T14:17:58.768Z,19.40
2019-03-29T14:19:52.118Z,19.50
2019-03-29T14:21:44.356Z,19.10
2019-03-29T14:23:36.732Z,18.90
2019-03-29T14:25:29.297Z,19.90
2019-03-29T14:27:21.569Z,20.30
2019-03-29T14:29:13.711Z,19.80
2019-03-29T14:31:05.889Z,20.70
2019-03-29T14:32:57.859Z,19.90
2019-03-29T14:34:50.314Z,19.60
2019-03-29T14:36:45.841Z,20.50
2019-03-29T14:38:38.334Z,20.90
2019-03-29T14:40:30.536Z,20.80
2019-03-29T14:42:23.223Z,20.30
2019-03-29T14:44:15.890Z,19.50
2019-03-29T14:46:08.172Z,19.80
2019-03-29T14:48:00.583Z,19.80
2019-03-29T14:49:52.960Z,19.40
2019-03-29T14:51:45.385Z,19.40
2019-03-29T14:53:38.640Z,19.30
2019-03-29T14:55:30.589Z,19.10
2019-03-29T14:57:22.711Z,20.20
2019-03-29T14:59:15.200Z,20.30
2019-03-29T15:01:08.758Z,19.00
2019-03-29T15:03:01.034Z,18.00
2019-03-29T15:04:53.436Z,18.00
2019-03-29T15:06:45.357Z,17.90
2019-03-29T15:08:37.530Z,17.90
2019-03-29T15:10:30.661Z,17.70
2019-03-29T15:12:23.083Z,17.80
2019-03-29T15:14:15.324Z,17.60
2019-03-29T15:16:07.448Z,17.50
2019-03-29T15:17:59.605Z,17.30
2019-03-29T15:19:52.055Z,17.30
2019-03-29T15:21:44.072Z,16.90
2019-03-29T15:23:36.608Z,17.00
2019-03-29T15:25:28.493Z,17.00
2019-03-29T15:27:20.686Z,16.50
2019-03-29T15:29:12.967Z,16.80
2019-03-29T15:31:05.368Z,16.50
2019-03-29T15:32:57.760Z,16.40
2019-03-29T15:34:49.969Z,16.20
2019-03-29T15:36:42.186Z,15.60
2019-03-29T15:38:34.637Z,15.70
2019-03-29T15:40:26.792Z,15.50
2019-03-29T15:42:20.524Z,15.60
2019-03-29T15:44:13.369Z,15.80
2019-03-29T15:46:05.348Z,16.20
2019-03-29T15:47:57.681Z,16.50
2019-03-29T15:49:56.212Z,17.10
2019-03-29T15:51:44.325Z,17.40
2019-03-29T15:53:36.185Z,16.70
2019-03-29T15:55:28.190Z,16.90
2019-03-29T15:57:20.763Z,16.70
2019-03-29T15:59:14.412Z,16.20
2019-03-29T16:01:06.618Z,15.80
2019-03-29T16:02:58.902Z,15.40
2019-03-29T16:04:51.742Z,15.20
2019-03-29T16:06:44.089Z,15.00
2019-03-29T16:08:36.504Z,15.00
2019-03-29T16:10:30.230Z,15.30
2019-03-29T16:12:22.383Z,15.40
2019-03-29T16:14:14.559Z,15.40
2019-03-29T16:16:06.960Z,15.60
2019-03-29T16:17:59.580Z,15.60
2019-03-29T16:19:51.795Z,15.70
2019-03-29T16:21:43.997Z,15.60
2019-03-29T16:23:36.122Z,15.20
2019-03-29T16:25:28.715Z,15.00
2019-03-29T16:27:20.967Z,14.90
2019-03-29T16:29:12.941Z,14.80
2019-03-29T16:31:06.544Z,15.00
2019-03-29T16:32:58.487Z,15.10
2019-03-29T16:34:44.272Z,15.20
2019-03-29T16:36:21.387Z,15.30
2019-03-29T16:37:57.548Z,15.30
2019-03-29T16:39:49.528Z,15.40
2019-03-29T16:41:41.745Z,15.10
2019-03-29T16:43:33.881Z,14.80
2019-03-29T16:45:25.972Z,14.60
2019-03-29T16:47:18.207Z,14.40
2019-03-29T16:49:10.558Z,14.30
2019-03-29T16:51:02.406Z,14.10
2019-03-29T16:52:36.205Z,14.00
2019-03-29T16:54:11.885Z,13.90
2019-03-29T16:55:45.466Z,13.80
2019-03-29T16:57:37.887Z,13.70
2019-03-29T16:59:11.763Z,13.70
2019-03-29T17:00:45.362Z,13.70
2019-03-29T17:02:19.452Z,13.60
2019-03-29T17:03:53.156Z,13.70
2019-03-29T17:05:26.803Z,13.70
2019-03-29T17:07:19.242Z,13.50
2019-03-29T17:09:02.095Z,13.50
2019-03-29T17:10:36.395Z,13.50
2019-03-29T17:12:10.264Z,13.40
2019-03-29T17:13:43.985Z,13.40
2019-03-29T17:15:17.653Z,13.30
2019-03-29T17:16:52.927Z,13.20
2019-03-29T17:18:29.609Z,13.20
2019-03-29T17:20:01.832Z,13.10
2019-03-29T17:21:35.457Z,13.10
2019-03-29T17:23:09.089Z,13.00
2019-03-29T17:24:56.018Z,13.10
2019-03-29T17:26:18.013Z,13.00
2019-03-29T17:27:52.278Z,13.00
2019-03-29T17:29:26.193Z,13.00
2019-03-29T17:31:01.560Z,12.90
2019-03-29T17:32:35.269Z,12.90
2019-03-29T17:34:08.957Z,12.80
2019-03-29T17:35:42.825Z,12.70
2019-03-29T17:37:16.428Z,12.70
2019-03-29T17:38:50.088Z,12.70
2019-03-29T17:40:23.987Z,12.60
2019-03-29T17:42:15.927Z,12.60
2019-03-29T17:44:08.273Z,12.50
2019-03-29T17:46:00.419Z,12.50
2019-03-29T17:47:34.243Z,12.40
2019-03-29T17:49:07.831Z,12.40
2019-03-29T17:50:41.413Z,12.40
2019-03-29T17:52:16.676Z,12.30
2019-03-29T17:53:50.339Z,12.30
2019-03-29T17:55:23.995Z,12.30
2019-03-29T17:57:16.017Z,12.30
2019-03-29T17:58:49.677Z,12.10
2019-03-29T18:00:27.908Z,12.20
2019-03-29T18:02:09.410Z,12.10
2019-03-29T18:03:36.863Z,12.10
2019-03-29T18:05:10.612Z,12.00
2019-03-29T18:06:46.853Z,12.00
2019-03-29T18:08:19.460Z,11.90
2019-03-29T18:10:11.648Z,11.90
2019-03-29T18:12:03.748Z,11.80
2019-03-29T18:13:55.879Z,11.80
2019-03-29T18:15:47.786Z,11.80
2019-03-29T18:17:39.862Z,11.80
2019-03-29T18:19:32.126Z,11.70
2019-03-29T18:21:24.597Z,11.70
2019-03-29T18:23:16.437Z,11.60
2019-03-29T18:25:08.939Z,11.60
2019-03-29T18:27:01.087Z,11.50
2019-03-29T18:28:53.476Z,11.50
2019-03-29T18:30:45.960Z,11.40
2019-03-29T18:32:38.453Z,11.40
2019-03-29T18:34:12.059Z,11.50
2019-03-29T18:35:45.645Z,11.50
2019-03-29T18:37:20.567Z,11.40
2019-03-29T18:38:54.258Z,11.30
2019-03-29T18:40:27.894Z,11.30
2019-03-29T18:42:01.488Z,11.30
2019-03-29T18:43:38.859Z,11.40
2019-03-29T18:45:30.906Z,11.30
2019-03-29T18:47:23.120Z,11.30
2019-03-29T18:49:15.712Z,11.30
2019-03-29T18:51:07.612Z,11.30
2019-03-29T18:52:59.503Z,11.20
2019-03-29T18:54:51.335Z,11.20
2019-03-29T18:56:43.304Z,11.10
2019-03-29T18:58:35.478Z,11.10
2019-03-29T19:00:34.429Z,11.00
2019-03-29T19:02:26.993Z,11.10
2019-03-29T19:04:19.337Z,11.00
2019-03-29T19:06:11.533Z,11.00
2019-03-29T19:08:04.164Z,10.90
2019-03-29T19:09:57.943Z,10.90
2019-03-29T19:11:50.080Z,10.80
2019-03-29T19:13:43.664Z,10.80
2019-03-29T19:15:35.563Z,10.70
2019-03-29T19:17:28.047Z,10.70
2019-03-29T19:19:19.964Z,10.60
2019-03-29T19:21:11.968Z,10.70
2019-03-29T19:23:04.167Z,10.70
2019-03-29T19:24:56.317Z,10.70
2019-03-29T19:26:48.689Z,10.70
2019-03-29T19:28:41.049Z,10.70
2019-03-29T19:30:33.671Z,10.60
2019-03-29T19:32:26.548Z,10.50
2019-03-29T19:34:19.780Z,10.50
2019-03-29T19:36:12.590Z,10.60
2019-03-29T19:38:04.930Z,10.60
2019-03-29T19:39:57.297Z,10.60
2019-03-29T19:41:49.716Z,10.60
2019-03-29T19:43:42.623Z,10.50
2019-03-29T19:45:35.136Z,10.50
2019-03-29T19:47:27.952Z,10.40
2019-03-29T19:49:20.515Z,10.40
2019-03-29T19:51:13.391Z,10.40
2019-03-29T19:53:05.953Z,10.40
2019-03-29T19:55:01.298Z,10.30
2019-03-29T19:56:53.321Z,10.20
2019-03-29T19:58:46.387Z,10.10
2019-03-29T20:00:40.221Z,10.10
2019-03-29T20:02:33.222Z,10.00
2019-03-29T20:04:26.171Z,9.90
2019-03-29T20:06:19.140Z,9.90
2019-03-29T20:08:12.414Z,9.90
2019-03-29T20:10:07.067Z,9.90
2019-03-29T20:12:00.540Z,10.00
2019-03-29T20:13:54.021Z,10.10
2019-03-29T20:15:47.363Z,10.10
2019-03-29T20:17:42.243Z,10.10
2019-03-29T20:19:35.609Z,10.10
2019-03-29T20:21:28.925Z,9.90
2019-03-29T20:23:22.205Z,9.80
2019-03-29T20:25:15.615Z,9.70
2019-03-29T20:27:09.219Z,9.70
2019-03-29T20:29:02.950Z,9.80
2019-03-29T20:30:56.502Z,9.90
2019-03-29T20:32:49.683Z,9.90
2019-03-29T20:34:44.976Z,9.90
2019-03-29T20:36:38.739Z,9.90
2019-03-29T20:38:32.510Z,9.90
2019-03-29T20:40:26.359Z,9.70
2019-03-29T20:42:19.715Z,9.70
2019-03-29T20:44:13.330Z,9.60
2019-03-29T20:46:07.005Z,9.50
2019-03-29T20:48:01.408Z,9.40
2019-03-29T20:49:55.453Z,9.40
2019-03-29T20:51:49.237Z,9.50
2019-03-29T20:53:43.722Z,9.50
2019-03-29T20:55:37.711Z,9.40
2019-03-29T20:57:31.912Z,9.40
2019-03-29T20:59:25.382Z,9.30
2019-03-29T21:01:19.059Z,9.30
2019-03-29T21:03:12.868Z,9.30
2019-03-29T21:05:06.604Z,9.30
2019-03-29T21:07:00.446Z,9.30
2019-03-29T21:08:53.996Z,9.20
2019-03-29T21:10:55.525Z,9.10
2019-03-29T21:12:42.242Z,9.10
2019-03-29T21:14:36.352Z,9.20
2019-03-29T21:16:29.606Z,9.30
2019-03-29T21:18:22.981Z,9.20
2019-03-29T21:20:15.862Z,9.20
2019-03-29T21:22:08.266Z,9.20
2019-03-29T21:24:01.215Z,9.10
2019-03-29T21:25:54.096Z,9.00
2019-03-29T21:27:46.625Z,9.00
2019-03-29T21:29:39.179Z,9.00
2019-03-29T21:31:31.537Z,9.00
2019-03-29T21:33:25.221Z,8.90
2019-03-29T21:35:17.785Z,8.90
2019-03-29T21:37:09.995Z,8.90
2019-03-29T21:39:02.151Z,8.80
2019-03-29T21:40:56.029Z,8.60
2019-03-29T21:42:48.488Z,8.60
2019-03-29T21:44:40.778Z,8.50
2019-03-29T21:46:34.039Z,8.50
2019-03-29T21:48:28.879Z,8.50
2019-03-29T21:50:20.585Z,8.50
2019-03-29T21:52:12.989Z,8.50
2019-03-29T21:54:05.070Z,8.40
2019-03-29T21:55:57.490Z,8.50
2019-03-29T21:57:49.676Z,8.40
2019-03-29T21:59:41.776Z,8.40
2019-03-29T22:01:33.908Z,8.40
2019-03-29T22:03:26.149Z,8.40
2019-03-29T22:05:18.275Z,8.40
2019-03-29T22:07:10.404Z,8.40
2019-03-29T22:09:02.813Z,8.50
2019-03-29T22:10:56.743Z,8.40
2019-03-29T22:12:48.868Z,8.40
2019-03-29T22:14:41.282Z,8.40
2019-03-29T22:16:34.507Z,8.40
2019-03-29T22:18:37.328Z,8.20
2019-03-29T22:20:20.012Z,8.10
2019-03-29T22:22:12.195Z,8.10
2019-03-29T22:24:04.196Z,8.00
2019-03-29T22:25:56.663Z,8.00
2019-03-29T22:27:48.683Z,8.00
2019-03-29T22:29:41.171Z,8.00
2019-03-29T22:31:33.072Z,8.00
2019-03-29T22:33:25.115Z,8.00
2019-03-29T22:35:17.044Z,8.10
2019-03-29T22:37:09.205Z,8.10
2019-03-29T22:39:01.099Z,8.20
2019-03-29T22:40:54.627Z,8.20
2019-03-29T22:42:46.735Z,8.10
2019-03-29T22:44:38.831Z,8.10
2019-03-29T22:46:30.997Z,8.10
2019-03-29T22:48:23.421Z,8.10
2019-03-29T22:50:15.669Z,8.00
2019-03-29T22:52:07.726Z,7.90
2019-03-29T22:54:00.269Z,7.90
2019-03-29T22:55:52.583Z,7.80
2019-03-29T22:57:44.512Z,7.90
2019-03-29T22:59:36.630Z,7.90
2019-03-29T23:01:30.401Z,8.00
2019-03-29T23:03:22.620Z,7.90
2019-03-29T23:05:15.025Z,8.00
2019-03-29T23:07:07.058Z,7.90
2019-03-29T23:08:58.907Z,7.70
2019-03-29T23:10:51.178Z,7.70
2019-03-29T23:12:43.147Z,7.60
2019-03-29T23:14:35.571Z,7.60
2019-03-29T23:16:30.400Z,7.50
2019-03-29T23:18:21.387Z,7.40
2019-03-29T23:20:13.511Z,7.40
2019-03-29T23:22:05.614Z,7.40
2019-03-29T23:23:57.928Z,7.40
2019-03-29T23:25:51.450Z,7.50
2019-03-29T23:27:43.648Z,7.50
2019-03-29T23:29:36.034Z,7.50
2019-03-29T23:31:28.366Z,7.50
2019-03-29T23:33:21.055Z,7.40
2019-03-29T23:35:13.749Z,7.40
2019-03-29T23:37:05.974Z,7.30
2019-03-29T23:38:57.840Z,7.30
2019-03-29T23:40:50.053Z,7.30
2019-03-29T23:42:43.006Z,7.30
2019-03-29T23:44:35.415Z,7.20
2019-03-29T23:46:27.700Z,7.20
2019-03-29T23:48:20.100Z,7.20
2019-03-29T23:50:12.536Z,7.20
2019-03-29T23:52:05.173Z,7.20
2019-03-29T23:53:57.570Z,7.20
2019-03-29T23:55:50.856Z,7.10
2019-03-29T23:57:43.072Z,7.10
2019-03-29T23:59:34.902Z,7.00
